2022年5月20日 11:002022年5月20日 20:00有效
时间
星期五
11:00
星期五
12:00
星期五
13:00
星期五
14:00
>40%
星期五
15:00
>40%
星期五
16:00
>40%
星期五
17:00
>40%
星期五
18:00
>40%
星期五
19:00
>40%
代码
VFR
VFR
VFR
VFR
VFR
VFR
VFR
VFR
VFR
天气
天空晴朗
天空晴朗
天空晴朗
天空晴朗
天空晴朗
天空晴朗
天空晴朗
天空晴朗
天空晴朗
能见度
10 km+
10 km+
10 km+
10 km+
10 km+
10 km+
10 km+
10 km+
10 km+
天花板
-
-
-
-
-
-
-
-
-
Var
Var
Var
Var
Var
Var
170°
170°
170°
170°
170°
170°
170°
170°
170°
170°
170°
170°
速度
3 kt
3 kt
3 kt
7 kt
7 kt
7 kt
7 kt
7 kt
7 kt
阵风
温度/星期日

原版的

TAF LIPI 200800Z 2009/2018 VRB03KT CAVOK
TEMPO 2012/2018 17007KT

TAF Aviosuperficie AS77

Aviosuperficie AS77是Mortegliano (UD),意大利中的小机场。

这份报告是针对2022年5月20日 10:00, 当地时间在Rivolto Air Base进行的。 从2022年5月20日 11:00到2022年5月20日 20:00, 当地时间有效.

预报

  • 从星期五 11:00到20:00

    • 风: 可变方向的风很小或没有。
    • CAVOK: 天气为CAVOK。这意味着在5.000 ft或MSA(最低安全高度)以下(以较高者为准)以下没有云。这也意味着没有观测到积雨云或高耸的积云,可见度为10 km 或者更多或更高。此外,不会有雾,降雨或其他重要天气。

  • 暂时在星期五 14:00和20:00之间

    • 风: 风来自170°方向,速度为7 kt。

白天

今天,太阳从05:29升起,在20:37降落。 这适用于Aviosuperficie AS77,世界夏令时可能有所不同。 当地时间与世界标准时间之间的时差为+2 小时。 夏令时目前正在进行中。

下载我们的应用程序

在您的手机和平板电脑上轻松访问所有航空天气。
有许多网站上没有的功能,如离线支持和个人机场列表。

Studio Eveline

Benalmádena
España

我们和第三方通过cookies跟踪您在我们网站上的上网行为。如果您继续,我们认为您同意我们的cookie政策。 了解更多